sensor_id;sensor_type;location;lat;lon;timestamp;pressure;altitude;pressure_sealevel;temperature;humidity
54546;BME280;40444;45.184;9.850;2024-03-17T00:01:41;101436.94;;;12.87;100.00
54546;BME280;40444;45.184;9.850;2024-03-17T00:04:08;101430.75;;;12.75;100.00
54546;BME280;40444;45.184;9.850;2024-03-17T00:06:36;101435.13;;;12.76;100.00
54546;BME280;40444;45.184;9.850;2024-03-17T00:09:04;101444.44;;;12.72;100.00
54546;BME280;40444;45.184;9.850;2024-03-17T00:11:33;101429.09;;;12.84;100.00
54546;BME280;40444;45.184;9.850;2024-03-17T00:14:02;101434.03;;;13.00;100.00
54546;BME280;40444;45.184;9.850;2024-03-17T00:16:30;101434.09;;;12.88;100.00
54546;BME280;40444;45.184;9.850;2024-03-17T00:18:57;101446.78;;;13.07;100.00
54546;BME280;40444;45.184;9.850;2024-03-17T00:21:24;101441.41;;;13.07;100.00
54546;BME280;40444;45.184;9.850;2024-03-17T00:23:53;101437.03;;;13.06;100.00
54546;BME280;40444;45.184;9.850;2024-03-17T00:26:20;101440.84;;;13.04;100.00
54546;BME280;40444;45.184;9.850;2024-03-17T00:28:48;101436.56;;;13.01;100.00
54546;BME280;40444;45.184;9.850;2024-03-17T00:31:18;101437.28;;;13.03;100.00
54546;BME280;40444;45.184;9.850;2024-03-17T00:33:45;101425.66;;;13.03;100.00
54546;BME280;40444;45.184;9.850;2024-03-17T00:36:13;101431.38;;;13.09;100.00
54546;BME280;40444;45.184;9.850;2024-03-17T00:38:41;101427.81;;;13.30;100.00
54546;BME280;40444;45.184;9.850;2024-03-17T00:41:09;101444.72;;;13.32;100.00
54546;BME280;40444;45.184;9.850;2024-03-17T00:43:36;101454.75;;;13.30;100.00
54546;BME280;40444;45.184;9.850;2024-03-17T00:46:04;101466.88;;;13.45;100.00
54546;BME280;40444;45.184;9.850;2024-03-17T00:48:32;101461.47;;;13.45;100.00
54546;BME280;40444;45.184;9.850;2024-03-17T00:50:59;101461.59;;;13.44;100.00
54546;BME280;40444;45.184;9.850;2024-03-17T00:53:28;101449.03;;;13.44;100.00
54546;BME280;40444;45.184;9.850;2024-03-17T00:55:56;101451.84;;;13.22;100.00
54546;BME280;40444;45.184;9.850;2024-03-17T00:58:27;101453.88;;;13.29;100.00
54546;BME280;40444;45.184;9.850;2024-03-17T01:00:54;101452.44;;;13.25;100.00
54546;BME280;40444;45.184;9.850;2024-03-17T01:03:22;101443.19;;;13.18;100.00
54546;BME280;40444;45.184;9.850;2024-03-17T01:05:49;101439.75;;;13.16;100.00
54546;BME280;40444;45.184;9.850;2024-03-17T01:08:19;101440.56;;;13.07;100.00
54546;BME280;40444;45.184;9.850;2024-03-17T01:10:48;101443.59;;;13.13;100.00
54546;BME280;40444;45.184;9.850;2024-03-17T01:13:18;101447.66;;;13.08;100.00
54546;BME280;40444;45.184;9.850;2024-03-17T01:15:46;101451.22;;;13.08;100.00
54546;BME280;40444;45.184;9.850;2024-03-17T01:18:19;101447.34;;;13.01;100.00
54546;BME280;40444;45.184;9.850;2024-03-17T01:20:46;101449.25;;;12.89;100.00
54546;BME280;40444;45.184;9.850;2024-03-17T01:23:13;101447.09;;;12.83;100.00
54546;BME280;40444;45.184;9.850;2024-03-17T01:25:41;101451.16;;;12.78;100.00
54546;BME280;40444;45.184;9.850;2024-03-17T01:28:09;101446.44;;;12.70;100.00
54546;BME280;40444;45.184;9.850;2024-03-17T01:30:37;101441.91;;;12.71;100.00
54546;BME280;40444;45.184;9.850;2024-03-17T01:33:05;101436.91;;;12.66;100.00
54546;BME280;40444;45.184;9.850;2024-03-17T01:35:32;101428.91;;;12.55;100.00
54546;BME280;40444;45.184;9.850;2024-03-17T01:37:59;101427.28;;;12.63;100.00
54546;BME280;40444;45.184;9.850;2024-03-17T01:40:26;101426.69;;;12.60;100.00
54546;BME280;40444;45.184;9.850;2024-03-17T01:42:54;101428.00;;;12.65;100.00
54546;BME280;40444;45.184;9.850;2024-03-17T01:45:27;101430.16;;;12.51;100.00
54546;BME280;40444;45.184;9.850;2024-03-17T01:47:56;101425.75;;;12.50;100.00
54546;BME280;40444;45.184;9.850;2024-03-17T01:50:36;101419.59;;;12.59;100.00
54546;BME280;40444;45.184;9.850;2024-03-17T01:53:05;101419.00;;;12.76;100.00
54546;BME280;40444;45.184;9.850;2024-03-17T01:55:36;101413.38;;;12.79;100.00
54546;BME280;40444;45.184;9.850;2024-03-17T01:58:04;101413.44;;;12.68;100.00
54546;BME280;40444;45.184;9.850;2024-03-17T02:00:35;101412.00;;;12.64;100.00
54546;BME280;40444;45.184;9.850;2024-03-17T02:03:07;101408.38;;;12.75;100.00
54546;BME280;40444;45.184;9.850;2024-03-17T02:05:38;101407.28;;;12.77;100.00
54546;BME280;40444;45.184;9.850;2024-03-17T02:08:06;101404.59;;;12.77;100.00
54546;BME280;40444;45.184;9.850;2024-03-17T02:10:34;101403.78;;;12.65;100.00
54546;BME280;40444;45.184;9.850;2024-03-17T02:13:01;101394.44;;;12.60;100.00
54546;BME280;40444;45.184;9.850;2024-03-17T02:15:30;101389.31;;;12.57;100.00
54546;BME280;40444;45.184;9.850;2024-03-17T02:17:58;101401.75;;;12.79;100.00
54546;BME280;40444;45.184;9.850;2024-03-17T02:20:25;101395.84;;;12.85;100.00
54546;BME280;40444;45.184;9.850;2024-03-17T02:23:12;101392.19;;;12.86;100.00
54546;BME280;40444;45.184;9.850;2024-03-17T02:25:39;101395.41;;;12.80;100.00
54546;BME280;40444;45.184;9.850;2024-03-17T02:28:07;101397.63;;;12.75;100.00
54546;BME280;40444;45.184;9.850;2024-03-17T02:30:34;101398.28;;;12.88;100.00
54546;BME280;40444;45.184;9.850;2024-03-17T02:33:02;101395.34;;;12.91;100.00
54546;BME280;40444;45.184;9.850;2024-03-17T02:35:30;101396.78;;;12.95;100.00
54546;BME280;40444;45.184;9.850;2024-03-17T02:37:58;101392.69;;;13.01;100.00
54546;BME280;40444;45.184;9.850;2024-03-17T02:40:25;101397.72;;;12.94;100.00
54546;BME280;40444;45.184;9.850;2024-03-17T02:42:52;101394.94;;;12.96;100.00
54546;BME280;40444;45.184;9.850;2024-03-17T02:45:20;101392.63;;;12.91;100.00
54546;BME280;40444;45.184;9.850;2024-03-17T02:47:48;101392.97;;;13.07;100.00
54546;BME280;40444;45.184;9.850;2024-03-17T02:50:17;101389.81;;;12.93;100.00
54546;BME280;40444;45.184;9.850;2024-03-17T02:52:44;101386.72;;;12.97;100.00
54546;BME280;40444;45.184;9.850;2024-03-17T02:55:11;101388.16;;;12.80;100.00
54546;BME280;40444;45.184;9.850;2024-03-17T02:57:39;101378.59;;;12.87;100.00
54546;BME280;40444;45.184;9.850;2024-03-17T03:00:07;101385.47;;;13.01;100.00
54546;BME280;40444;45.184;9.850;2024-03-17T03:02:40;101381.97;;;13.10;100.00
54546;BME280;40444;45.184;9.850;2024-03-17T03:05:07;101400.31;;;12.96;100.00
54546;BME280;40444;45.184;9.850;2024-03-17T03:07:34;101393.34;;;12.93;100.00
54546;BME280;40444;45.184;9.850;2024-03-17T03:10:02;101399.78;;;12.81;100.00
54546;BME280;40444;45.184;9.850;2024-03-17T03:12:29;101405.31;;;12.79;100.00
54546;BME280;40444;45.184;9.850;2024-03-17T03:14:58;101406.16;;;12.80;100.00
54546;BME280;40444;45.184;9.850;2024-03-17T03:17:25;101404.16;;;12.40;100.00
54546;BME280;40444;45.184;9.850;2024-03-17T03:19:52;101401.47;;;12.40;100.00
54546;BME280;40444;45.184;9.850;2024-03-17T03:22:21;101404.56;;;12.35;100.00
54546;BME280;40444;45.184;9.850;2024-03-17T03:24:51;101405.16;;;12.39;100.00
54546;BME280;40444;45.184;9.850;2024-03-17T03:27:19;101414.44;;;12.46;100.00
54546;BME280;40444;45.184;9.850;2024-03-17T03:29:46;101411.66;;;12.57;100.00
54546;BME280;40444;45.184;9.850;2024-03-17T03:32:14;101415.09;;;12.59;100.00
54546;BME280;40444;45.184;9.850;2024-03-17T03:34:41;101406.28;;;12.57;100.00
54546;BME280;40444;45.184;9.850;2024-03-17T03:37:09;101408.06;;;12.47;100.00
54546;BME280;40444;45.184;9.850;2024-03-17T03:39:37;101404.97;;;12.52;100.00
54546;BME280;40444;45.184;9.850;2024-03-17T03:42:05;101394.09;;;12.53;100.00
54546;BME280;40444;45.184;9.850;2024-03-17T03:44:32;101396.13;;;12.61;100.00
54546;BME280;40444;45.184;9.850;2024-03-17T03:47:00;101393.44;;;12.61;100.00
54546;BME280;40444;45.184;9.850;2024-03-17T03:49:27;101401.38;;;12.62;100.00
54546;BME280;40444;45.184;9.850;2024-03-17T03:51:56;101401.16;;;12.54;100.00
54546;BME280;40444;45.184;9.850;2024-03-17T03:54:24;101393.84;;;12.56;100.00
54546;BME280;40444;45.184;9.850;2024-03-17T03:56:51;101401.06;;;12.56;100.00
54546;BME280;40444;45.184;9.850;2024-03-17T03:59:19;101393.22;;;12.53;100.00
54546;BME280;40444;45.184;9.850;2024-03-17T04:01:47;101389.84;;;12.51;100.00
54546;BME280;40444;45.184;9.850;2024-03-17T04:04:16;101404.53;;;12.47;100.00
54546;BME280;40444;45.184;9.850;2024-03-17T04:06:43;101404.63;;;12.45;100.00
54546;BME280;40444;45.184;9.850;2024-03-17T04:09:11;101410.59;;;12.49;100.00
54546;BME280;40444;45.184;9.850;2024-03-17T04:11:38;101408.38;;;12.54;100.00
54546;BME280;40444;45.184;9.850;2024-03-17T04:14:06;101412.59;;;12.47;100.00
54546;BME280;40444;45.184;9.850;2024-03-17T04:16:33;101411.16;;;12.63;100.00
54546;BME280;40444;45.184;9.850;2024-03-17T04:19:00;101414.81;;;12.42;100.00
54546;BME280;40444;45.184;9.850;2024-03-17T04:21:28;101420.81;;;12.34;100.00
54546;BME280;40444;45.184;9.850;2024-03-17T04:23:55;101418.06;;;12.45;100.00
54546;BME280;40444;45.184;9.850;2024-03-17T04:26:22;101419.78;;;12.14;100.00
54546;BME280;40444;45.184;9.850;2024-03-17T04:28:50;101423.34;;;12.14;100.00
54546;BME280;40444;45.184;9.850;2024-03-17T04:31:17;101428.59;;;12.16;100.00
54546;BME280;40444;45.184;9.850;2024-03-17T04:33:45;101434.13;;;12.35;100.00
54546;BME280;40444;45.184;9.850;2024-03-17T04:36:13;101441.09;;;12.38;100.00
54546;BME280;40444;45.184;9.850;2024-03-17T04:38:41;101440.47;;;12.34;100.00
54546;BME280;40444;45.184;9.850;2024-03-17T04:41:08;101444.28;;;12.32;100.00
54546;BME280;40444;45.184;9.850;2024-03-17T04:43:36;101448.63;;;12.01;100.00
54546;BME280;40444;45.184;9.850;2024-03-17T04:46:04;101457.19;;;12.06;100.00
54546;BME280;40444;45.184;9.850;2024-03-17T04:48:33;101454.53;;;12.06;100.00
54546;BME280;40444;45.184;9.850;2024-03-17T04:51:00;101460.34;;;12.11;100.00
54546;BME280;40444;45.184;9.850;2024-03-17T04:53:28;101468.75;;;12.18;100.00
54546;BME280;40444;45.184;9.850;2024-03-17T04:56:03;101464.13;;;12.20;100.00
54546;BME280;40444;45.184;9.850;2024-03-17T04:58:32;101469.13;;;12.24;100.00
54546;BME280;40444;45.184;9.850;2024-03-17T05:01:06;101470.94;;;12.24;100.00
54546;BME280;40444;45.184;9.850;2024-03-17T05:03:34;101477.78;;;12.28;100.00
54546;BME280;40444;45.184;9.850;2024-03-17T05:06:03;101482.28;;;12.27;100.00
54546;BME280;40444;45.184;9.850;2024-03-17T05:08:32;101483.72;;;12.31;100.00
54546;BME280;40444;45.184;9.850;2024-03-17T05:11:01;101482.50;;;12.35;100.00
54546;BME280;40444;45.184;9.850;2024-03-17T05:13:38;101479.66;;;12.05;100.00
54546;BME280;40444;45.184;9.850;2024-03-17T05:16:06;101487.50;;;11.97;100.00
54546;BME280;40444;45.184;9.850;2024-03-17T05:18:33;101484.59;;;11.88;100.00
54546;BME280;40444;45.184;9.850;2024-03-17T05:21:03;101482.38;;;11.82;100.00
54546;BME280;40444;45.184;9.850;2024-03-17T05:23:32;101491.19;;;11.84;100.00
54546;BME280;40444;45.184;9.850;2024-03-17T05:26:00;101485.53;;;11.87;100.00
54546;BME280;40444;45.184;9.850;2024-03-17T05:28:29;101485.81;;;11.84;100.00
54546;BME280;40444;45.184;9.850;2024-03-17T05:30:56;101482.28;;;11.84;100.00
54546;BME280;40444;45.184;9.850;2024-03-17T05:33:25;101488.84;;;11.80;100.00
54546;BME280;40444;45.184;9.850;2024-03-17T05:36:02;101490.31;;;11.84;100.00
54546;BME280;40444;45.184;9.850;2024-03-17T05:38:30;101485.53;;;11.99;100.00
54546;BME280;40444;45.184;9.850;2024-03-17T05:41:04;101494.06;;;12.15;100.00
54546;BME280;40444;45.184;9.850;2024-03-17T05:43:36;101502.44;;;12.22;100.00
54546;BME280;40444;45.184;9.850;2024-03-17T05:46:07;101485.00;;;12.16;100.00
54546;BME280;40444;45.184;9.850;2024-03-17T05:48:35;101492.69;;;12.09;100.00
54546;BME280;40444;45.184;9.850;2024-03-17T05:51:10;101496.50;;;12.07;100.00
54546;BME280;40444;45.184;9.850;2024-03-17T05:53:39;101499.19;;;12.07;100.00
54546;BME280;40444;45.184;9.850;2024-03-17T05:56:11;101494.69;;;12.07;100.00
54546;BME280;40444;45.184;9.850;2024-03-17T05:58:39;101501.13;;;12.05;100.00
54546;BME280;40444;45.184;9.850;2024-03-17T06:01:07;101494.81;;;12.06;100.00
54546;BME280;40444;45.184;9.850;2024-03-17T06:03:34;101502.22;;;12.13;100.00
54546;BME280;40444;45.184;9.850;2024-03-17T06:06:06;101498.06;;;12.09;100.00
54546;BME280;40444;45.184;9.850;2024-03-17T06:08:42;101510.78;;;12.07;100.00
54546;BME280;40444;45.184;9.850;2024-03-17T06:11:10;101505.06;;;12.01;100.00
54546;BME280;40444;45.184;9.850;2024-03-17T06:13:38;101501.28;;;11.81;100.00
54546;BME280;40444;45.184;9.850;2024-03-17T06:16:05;101500.56;;;11.79;100.00
54546;BME280;40444;45.184;9.850;2024-03-17T06:18:33;101507.63;;;11.80;100.00
54546;BME280;40444;45.184;9.850;2024-03-17T06:21:00;101511.53;;;11.87;100.00
54546;BME280;40444;45.184;9.850;2024-03-17T06:23:28;101522.41;;;11.97;100.00
54546;BME280;40444;45.184;9.850;2024-03-17T06:25:55;101510.41;;;12.01;100.00
54546;BME280;40444;45.184;9.850;2024-03-17T06:28:23;101507.03;;;11.99;100.00
54546;BME280;40444;45.184;9.850;2024-03-17T06:30:57;101508.00;;;11.98;100.00
54546;BME280;40444;45.184;9.850;2024-03-17T06:33:26;101509.22;;;11.94;100.00
54546;BME280;40444;45.184;9.850;2024-03-17T06:36:02;101506.41;;;11.95;100.00
54546;BME280;40444;45.184;9.850;2024-03-17T06:38:33;101507.03;;;11.99;100.00
54546;BME280;40444;45.184;9.850;2024-03-17T06:41:00;101501.41;;;12.02;100.00
54546;BME280;40444;45.184;9.850;2024-03-17T06:43:28;101507.72;;;12.12;100.00
54546;BME280;40444;45.184;9.850;2024-03-17T06:45:59;101505.00;;;12.23;100.00
54546;BME280;40444;45.184;9.850;2024-03-17T06:48:28;101506.97;;;12.32;100.00
54546;BME280;40444;45.184;9.850;2024-03-17T06:50:55;101510.34;;;12.46;100.00
54546;BME280;40444;45.184;9.850;2024-03-17T06:53:23;101508.03;;;12.73;100.00
54546;BME280;40444;45.184;9.850;2024-03-17T06:55:54;101515.16;;;12.84;100.00
54546;BME280;40444;45.184;9.850;2024-03-17T06:58:23;101514.25;;;12.95;100.00
54546;BME280;40444;45.184;9.850;2024-03-17T07:01:01;101516.91;;;13.06;100.00
54546;BME280;40444;45.184;9.850;2024-03-17T07:03:30;101519.13;;;13.22;100.00
54546;BME280;40444;45.184;9.850;2024-03-17T07:06:00;101515.69;;;13.31;100.00
54546;BME280;40444;45.184;9.850;2024-03-17T07:08:30;101528.19;;;13.42;100.00
54546;BME280;40444;45.184;9.850;2024-03-17T07:11:03;101518.81;;;13.36;100.00
54546;BME280;40444;45.184;9.850;2024-03-17T07:13:38;101522.75;;;13.53;100.00
54546;BME280;40444;45.184;9.850;2024-03-17T07:16:09;101519.75;;;13.56;100.00
54546;BME280;40444;45.184;9.850;2024-03-17T07:18:37;101518.13;;;13.74;100.00
54546;BME280;40444;45.184;9.850;2024-03-17T07:21:04;101514.88;;;14.11;100.00
54546;BME280;40444;45.184;9.850;2024-03-17T07:23:31;101522.00;;;14.31;100.00
54546;BME280;40444;45.184;9.850;2024-03-17T07:26:01;101529.41;;;14.39;100.00
54546;BME280;40444;45.184;9.850;2024-03-17T07:28:28;101527.59;;;14.49;100.00
54546;BME280;40444;45.184;9.850;2024-03-17T07:30:58;101526.31;;;14.63;100.00
54546;BME280;40444;45.184;9.850;2024-03-17T07:33:26;101523.50;;;14.84;100.00
54546;BME280;40444;45.184;9.850;2024-03-17T07:35:55;101530.13;;;15.09;100.00
54546;BME280;40444;45.184;9.850;2024-03-17T07:38:24;101530.84;;;15.21;100.00
54546;BME280;40444;45.184;9.850;2024-03-17T07:40:59;101533.34;;;15.41;100.00
54546;BME280;40444;45.184;9.850;2024-03-17T07:43:28;101537.44;;;15.55;100.00
54546;BME280;40444;45.184;9.850;2024-03-17T07:46:07;101536.69;;;15.73;100.00
54546;BME280;40444;45.184;9.850;2024-03-17T07:48:36;101544.31;;;15.87;100.00
54546;BME280;40444;45.184;9.850;2024-03-17T07:51:06;101548.13;;;15.94;100.00
54546;BME280;40444;45.184;9.850;2024-03-17T07:53:35;101542.16;;;16.18;100.00
54546;BME280;40444;45.184;9.850;2024-03-17T07:56:04;101545.06;;;16.34;100.00
54546;BME280;40444;45.184;9.850;2024-03-17T07:58:33;101543.50;;;16.32;100.00
54546;BME280;40444;45.184;9.850;2024-03-17T08:01:22;101543.38;;;16.51;100.00
54546;BME280;40444;45.184;9.850;2024-03-17T08:03:49;101536.50;;;16.57;100.00
54546;BME280;40444;45.184;9.850;2024-03-17T08:06:22;101544.66;;;16.75;100.00
54546;BME280;40444;45.184;9.850;2024-03-17T08:08:49;101546.72;;;16.99;100.00
54546;BME280;40444;45.184;9.850;2024-03-17T08:11:19;101542.16;;;17.17;100.00
54546;BME280;40444;45.184;9.850;2024-03-17T08:13:47;101545.09;;;17.24;100.00
54546;BME280;40444;45.184;9.850;2024-03-17T08:16:15;101551.72;;;17.29;100.00
54546;BME280;40444;45.184;9.850;2024-03-17T08:18:45;101545.75;;;17.26;100.00
54546;BME280;40444;45.184;9.850;2024-03-17T08:21:12;101547.16;;;17.30;100.00
54546;BME280;40444;45.184;9.850;2024-03-17T08:23:40;101546.44;;;17.28;100.00
54546;BME280;40444;45.184;9.850;2024-03-17T08:26:09;101549.06;;;17.37;100.00
54546;BME280;40444;45.184;9.850;2024-03-17T08:28:37;101552.44;;;17.13;100.00
54546;BME280;40444;45.184;9.850;2024-03-17T08:31:05;101549.25;;;17.18;100.00
54546;BME280;40444;45.184;9.850;2024-03-17T08:33:33;101555.03;;;17.23;100.00
54546;BME280;40444;45.184;9.850;2024-03-17T08:38:31;101539.03;;;17.56;100.00
54546;BME280;40444;45.184;9.850;2024-03-17T08:41:03;101537.38;;;17.63;100.00
54546;BME280;40444;45.184;9.850;2024-03-17T08:43:32;101537.31;;;17.81;100.00
54546;BME280;40444;45.184;9.850;2024-03-17T08:46:05;101533.63;;;17.82;100.00
54546;BME280;40444;45.184;9.850;2024-03-17T08:48:35;101535.75;;;18.04;100.00
54546;BME280;40444;45.184;9.850;2024-03-17T08:51:05;101532.41;;;18.18;100.00
54546;BME280;40444;45.184;9.850;2024-03-17T08:53:34;101533.47;;;18.34;100.00
54546;BME280;40444;45.184;9.850;2024-03-17T08:56:03;101537.03;;;18.26;100.00
54546;BME280;40444;45.184;9.850;2024-03-17T08:58:30;101545.69;;;18.38;100.00
54546;BME280;40444;45.184;9.850;2024-03-17T09:00:58;101538.25;;;18.40;100.00
54546;BME280;40444;45.184;9.850;2024-03-17T09:03:25;101540.97;;;18.40;100.00
54546;BME280;40444;45.184;9.850;2024-03-17T09:05:54;101538.31;;;18.73;100.00
54546;BME280;40444;45.184;9.850;2024-03-17T09:08:23;101539.69;;;18.77;100.00
54546;BME280;40444;45.184;9.850;2024-03-17T09:10:52;101537.25;;;18.65;100.00
54546;BME280;40444;45.184;9.850;2024-03-17T09:13:24;101542.06;;;18.88;100.00
54546;BME280;40444;45.184;9.850;2024-03-17T09:15:57;101538.00;;;19.00;100.00
54546;BME280;40444;45.184;9.850;2024-03-17T09:18:28;101544.78;;;19.21;100.00
54546;BME280;40444;45.184;9.850;2024-03-17T09:21:06;101545.59;;;19.45;100.00
54546;BME280;40444;45.184;9.850;2024-03-17T09:23:34;101549.66;;;19.58;100.00
54546;BME280;40444;45.184;9.850;2024-03-17T09:26:07;101546.59;;;19.53;100.00
54546;BME280;40444;45.184;9.850;2024-03-17T09:28:38;101548.81;;;19.65;100.00
54546;BME280;40444;45.184;9.850;2024-03-17T09:31:05;101546.09;;;19.74;100.00
54546;BME280;40444;45.184;9.850;2024-03-17T09:33:35;101537.22;;;19.80;100.00
54546;BME280;40444;45.184;9.850;2024-03-17T09:36:04;101540.34;;;20.08;100.00
54546;BME280;40444;45.184;9.850;2024-03-17T09:38:34;101535.28;;;20.36;100.00
54546;BME280;40444;45.184;9.850;2024-03-17T09:41:02;101542.16;;;20.55;100.00
54546;BME280;40444;45.184;9.850;2024-03-17T09:43:32;101541.03;;;20.72;100.00
54546;BME280;40444;45.184;9.850;2024-03-17T09:46:04;101540.41;;;20.85;100.00
54546;BME280;40444;45.184;9.850;2024-03-17T09:48:32;101539.19;;;20.87;100.00
54546;BME280;40444;45.184;9.850;2024-03-17T09:51:02;101542.63;;;20.89;100.00
54546;BME280;40444;45.184;9.850;2024-03-17T09:53:31;101534.09;;;21.07;100.00
54546;BME280;40444;45.184;9.850;2024-03-17T09:56:08;101536.81;;;21.07;100.00
54546;BME280;40444;45.184;9.850;2024-03-17T09:58:37;101532.16;;;20.93;100.00
54546;BME280;40444;45.184;9.850;2024-03-17T10:01:04;101544.53;;;21.04;100.00
54546;BME280;40444;45.184;9.850;2024-03-17T10:03:49;101541.81;;;21.04;100.00
54546;BME280;40444;45.184;9.850;2024-03-17T10:06:26;101537.81;;;20.68;100.00
54546;BME280;40444;45.184;9.850;2024-03-17T10:08:58;101537.75;;;20.54;100.00
54546;BME280;40444;45.184;9.850;2024-03-17T10:11:32;101529.06;;;20.58;100.00
54546;BME280;40444;45.184;9.850;2024-03-17T10:14:08;101523.53;;;20.35;100.00
54546;BME280;40444;45.184;9.850;2024-03-17T10:16:37;101521.34;;;20.31;100.00
54546;BME280;40444;45.184;9.850;2024-03-17T10:19:21;101513.91;;;20.25;100.00
54546;BME280;40444;45.184;9.850;2024-03-17T10:21:50;101520.03;;;19.87;100.00
54546;BME280;40444;45.184;9.850;2024-03-17T10:24:24;101518.44;;;20.01;100.00
54546;BME280;40444;45.184;9.850;2024-03-17T10:26:57;101519.13;;;19.95;100.00
54546;BME280;40444;45.184;9.850;2024-03-17T10:29:35;101523.72;;;19.94;100.00
54546;BME280;40444;45.184;9.850;2024-03-17T10:32:15;101522.66;;;20.04;100.00
54546;BME280;40444;45.184;9.850;2024-03-17T10:34:45;101519.09;;;20.03;100.00
54546;BME280;40444;45.184;9.850;2024-03-17T10:37:14;101515.06;;;19.91;100.00
54546;BME280;40444;45.184;9.850;2024-03-17T10:39:43;101510.59;;;20.06;100.00
54546;BME280;40444;45.184;9.850;2024-03-17T10:42:11;101510.81;;;19.97;100.00
54546;BME280;40444;45.184;9.850;2024-03-17T10:44:41;101514.63;;;20.18;100.00
54546;BME280;40444;45.184;9.850;2024-03-17T10:47:23;101513.59;;;20.19;100.00
54546;BME280;40444;45.184;9.850;2024-03-17T10:49:53;101515.81;;;20.16;100.00
54546;BME280;40444;45.184;9.850;2024-03-17T10:52:22;101509.50;;;20.24;100.00
54546;BME280;40444;45.184;9.850;2024-03-17T10:54:53;101509.06;;;20.35;100.00
54546;BME280;40444;45.184;9.850;2024-03-17T11:00:05;101499.34;;;20.40;100.00
54546;BME280;40444;45.184;9.850;2024-03-17T11:02:36;101505.09;;;20.45;100.00
54546;BME280;40444;45.184;9.850;2024-03-17T11:05:05;101501.19;;;20.48;100.00
54546;BME280;40444;45.184;9.850;2024-03-17T11:07:34;101497.34;;;20.34;100.00
54546;BME280;40444;45.184;9.850;2024-03-17T11:12:48;101494.47;;;20.36;100.00
54546;BME280;40444;45.184;9.850;2024-03-17T11:17:50;101489.06;;;20.28;100.00
54546;BME280;40444;45.184;9.850;2024-03-17T11:20:25;101490.56;;;20.30;100.00
54546;BME280;40444;45.184;9.850;2024-03-17T11:22:56;101479.16;;;20.58;100.00
54546;BME280;40444;45.184;9.850;2024-03-17T11:27:57;101469.19;;;20.73;100.00
54546;BME280;40444;45.184;9.850;2024-03-17T11:30:43;101464.78;;;20.72;100.00
54546;BME280;40444;45.184;9.850;2024-03-17T11:38:58;101469.97;;;20.82;100.00
54546;BME280;40444;45.184;9.850;2024-03-17T11:47:05;101468.63;;;21.15;100.00
54546;BME280;40444;45.184;9.850;2024-03-17T11:49:35;101458.75;;;21.29;100.00
54546;BME280;40444;45.184;9.850;2024-03-17T11:52:14;101454.13;;;21.53;99.62
54546;BME280;40444;45.184;9.850;2024-03-17T11:54:43;101452.72;;;21.57;98.64
54546;BME280;40444;45.184;9.850;2024-03-17T11:57:24;101451.75;;;21.64;96.07
54546;BME280;40444;45.184;9.850;2024-03-17T11:59:54;101446.88;;;21.75;98.26
54546;BME280;40444;45.184;9.850;2024-03-17T12:04:56;101454.94;;;21.68;95.45
54546;BME280;40444;45.184;9.850;2024-03-17T12:07:24;101449.47;;;21.83;98.81
54546;BME280;40444;45.184;9.850;2024-03-17T12:09:52;101449.91;;;22.01;98.59
54546;BME280;40444;45.184;9.850;2024-03-17T12:12:25;101450.03;;;22.29;95.62
54546;BME280;40444;45.184;9.850;2024-03-17T12:15:03;101445.22;;;22.53;92.67
54546;BME280;40444;45.184;9.850;2024-03-17T12:17:32;101443.34;;;22.53;91.80
54546;BME280;40444;45.184;9.850;2024-03-17T12:20:03;101443.06;;;22.27;92.76
54546;BME280;40444;45.184;9.850;2024-03-17T12:22:32;101442.91;;;22.28;90.64
54546;BME280;40444;45.184;9.850;2024-03-17T12:25:16;101437.56;;;22.41;88.03
54546;BME280;40444;45.184;9.850;2024-03-17T12:27:45;101431.91;;;22.64;86.92
54546;BME280;40444;45.184;9.850;2024-03-17T12:30:14;101420.72;;;22.59;86.85
54546;BME280;40444;45.184;9.850;2024-03-17T12:32:42;101410.34;;;22.76;84.26
54546;BME280;40444;45.184;9.850;2024-03-17T12:35:12;101398.13;;;22.72;85.17
54546;BME280;40444;45.184;9.850;2024-03-17T12:37:43;101400.31;;;22.55;84.71
54546;BME280;40444;45.184;9.850;2024-03-17T12:40:21;101391.44;;;22.53;84.99
54546;BME280;40444;45.184;9.850;2024-03-17T12:42:50;101387.25;;;22.51;87.80
54546;BME280;40444;45.184;9.850;2024-03-17T12:45:21;101384.91;;;22.48;90.86
54546;BME280;40444;45.184;9.850;2024-03-17T12:47:50;101379.56;;;22.61;89.26
54546;BME280;40444;45.184;9.850;2024-03-17T12:50:19;101379.59;;;22.67;88.98
54546;BME280;40444;45.184;9.850;2024-03-17T12:52:53;101369.84;;;22.58;91.24
54546;BME280;40444;45.184;9.850;2024-03-17T12:55:22;101362.00;;;22.49;91.35
54546;BME280;40444;45.184;9.850;2024-03-17T12:58:10;101358.53;;;22.61;88.34
54546;BME280;40444;45.184;9.850;2024-03-17T13:01:06;101355.91;;;22.47;89.33
54546;BME280;40444;45.184;9.850;2024-03-17T13:03:35;101354.25;;;22.80;88.07
54546;BME280;40444;45.184;9.850;2024-03-17T13:06:04;101345.19;;;22.73;88.46
54546;BME280;40444;45.184;9.850;2024-03-17T13:08:33;101350.69;;;22.80;87.08
54546;BME280;40444;45.184;9.850;2024-03-17T13:11:01;101347.81;;;22.88;88.01
54546;BME280;40444;45.184;9.850;2024-03-17T13:13:31;101342.84;;;22.98;88.81
54546;BME280;40444;45.184;9.850;2024-03-17T13:15:58;101345.00;;;22.81;86.91
54546;BME280;40444;45.184;9.850;2024-03-17T13:18:26;101344.88;;;22.89;87.13
54546;BME280;40444;45.184;9.850;2024-03-17T13:20:53;101354.63;;;22.99;87.88